createdAt,value
2018-09-11T00:01:41.033Z,7.50
2018-09-11T00:04:09.965Z,9.57
2018-09-11T00:06:38.629Z,7.40
2018-09-11T00:09:08.700Z,8.47
2018-09-11T00:11:37.897Z,9.00
2018-09-11T00:14:06.365Z,8.00
2018-09-11T00:16:34.987Z,8.83
2018-09-11T00:19:03.736Z,7.93
2018-09-11T00:21:32.154Z,8.80
2018-09-11T00:24:02.307Z,8.80
2018-09-11T00:26:30.913Z,10.13
2018-09-11T00:28:59.341Z,8.60
2018-09-11T00:31:27.772Z,8.87
2018-09-11T00:33:56.235Z,9.27
2018-09-11T00:36:24.813Z,9.23
2018-09-11T00:38:53.619Z,9.23
2018-09-11T00:41:22.028Z,8.07
2018-09-11T00:43:50.487Z,8.93
2018-09-11T00:46:19.343Z,6.97
2018-09-11T00:48:47.797Z,8.80
2018-09-11T00:51:15.889Z,7.53
2018-09-11T00:53:44.226Z,8.13
2018-09-11T00:56:13.100Z,9.73
2018-09-11T00:58:41.520Z,8.17
2018-09-11T01:01:10.332Z,7.60
2018-09-11T01:03:38.776Z,8.80
2018-09-11T01:06:07.144Z,6.50
2018-09-11T01:08:36.237Z,7.63
2018-09-11T01:11:04.341Z,5.30
2018-09-11T01:13:32.766Z,7.57
2018-09-11T01:16:01.209Z,9.40
2018-09-11T01:18:29.644Z,8.20
2018-09-11T01:20:58.064Z,6.77
2018-09-11T01:23:26.749Z,10.63
2018-09-11T01:25:55.441Z,6.07
2018-09-11T01:28:23.881Z,9.10
2018-09-11T01:30:52.736Z,5.07
2018-09-11T01:33:21.170Z,6.47
2018-09-11T01:35:49.628Z,6.27
2018-09-11T01:38:18.065Z,8.80
2018-09-11T01:40:46.149Z,5.20
2018-09-11T01:43:14.277Z,4.10
2018-09-11T01:45:42.722Z,5.90
2018-09-11T01:48:10.901Z,5.60
2018-09-11T01:50:39.345Z,4.60
2018-09-11T01:53:08.305Z,6.63
2018-09-11T01:55:36.758Z,9.40
2018-09-11T01:58:04.920Z,8.20
2018-09-11T02:00:33.276Z,8.60
2018-09-11T02:03:01.941Z,7.90
2018-09-11T02:05:30.377Z,4.73
2018-09-11T02:07:59.062Z,8.00
2018-09-11T02:10:27.537Z,6.20
2018-09-11T02:12:55.979Z,12.10
2018-09-11T02:15:24.295Z,13.23
2018-09-11T02:17:52.738Z,7.70
2018-09-11T02:20:21.165Z,10.63
2018-09-11T02:22:49.601Z,8.67
2018-09-11T02:25:18.050Z,12.37
2018-09-11T02:27:46.486Z,5.90
2018-09-11T02:30:14.923Z,6.73
2018-09-11T02:32:43.557Z,7.00
2018-09-11T02:35:22.557Z,10.13
2018-09-11T02:37:50.645Z,6.10
2018-09-11T02:40:19.369Z,7.23
2018-09-11T02:42:47.525Z,9.43
2018-09-11T02:45:16.186Z,10.00
2018-09-11T02:47:44.886Z,4.40
2018-09-11T02:50:13.219Z,6.93
2018-09-11T02:52:41.652Z,5.73
2018-09-11T02:55:10.089Z,5.87
2018-09-11T02:57:38.537Z,6.67
2018-09-11T03:00:06.646Z,7.80
2018-09-11T03:02:35.089Z,10.33
2018-09-11T03:05:03.469Z,7.30
2018-09-11T03:07:32.162Z,6.37
2018-09-11T03:10:00.602Z,8.10
2018-09-11T03:12:28.906Z,7.27
2018-09-11T03:14:58.618Z,10.50
2018-09-11T03:17:27.045Z,7.87
2018-09-11T03:19:55.530Z,7.87
2018-09-11T03:22:23.658Z,4.73
2018-09-11T03:24:52.292Z,5.43
2018-09-11T03:27:21.372Z,7.43
2018-09-11T03:29:49.793Z,9.90
2018-09-11T03:32:18.230Z,8.90
2018-09-11T03:34:46.653Z,8.53
2018-09-11T03:37:15.905Z,7.97
2018-09-11T03:39:44.530Z,9.57
2018-09-11T03:42:12.983Z,12.63
2018-09-11T03:44:41.649Z,9.00
2018-09-11T03:47:10.313Z,10.90
2018-09-11T03:49:38.784Z,12.27
2018-09-11T03:52:07.978Z,9.73
2018-09-11T03:54:36.275Z,8.90
2018-09-11T03:57:04.489Z,16.67
2018-09-11T03:59:32.582Z,14.33
2018-09-11T04:02:02.052Z,12.43
2018-09-11T04:04:30.498Z,9.50
2018-09-11T04:06:59.604Z,11.27
2018-09-11T04:09:28.511Z,13.27
2018-09-11T04:11:57.189Z,12.33
2018-09-11T04:14:25.623Z,19.13
2018-09-11T04:16:54.069Z,11.70
2018-09-11T04:19:22.728Z,13.37
2018-09-11T04:21:51.309Z,12.73
2018-09-11T04:24:19.735Z,10.63
2018-09-11T04:26:48.193Z,11.70
2018-09-11T04:29:16.301Z,16.57
2018-09-11T04:31:44.970Z,12.80
2018-09-11T04:34:13.457Z,11.47
2018-09-11T04:36:41.886Z,11.87
2018-09-11T04:39:10.369Z,14.07
2018-09-11T04:41:38.839Z,15.00
2018-09-11T04:44:07.496Z,13.97
2018-09-11T04:46:35.597Z,15.83
2018-09-11T04:49:04.488Z,13.50
2018-09-11T04:51:32.637Z,14.87
2018-09-11T04:54:01.079Z,16.50
2018-09-11T04:56:29.934Z,13.10
2018-09-11T04:58:58.393Z,14.70
2018-09-11T05:01:26.831Z,15.27
2018-09-11T05:03:55.272Z,10.50
2018-09-11T05:06:23.708Z,12.43
2018-09-11T05:08:52.164Z,14.70
2018-09-11T05:11:20.269Z,12.33
2018-09-11T05:13:49.085Z,13.43
2018-09-11T05:16:17.522Z,14.03
2018-09-11T05:18:45.976Z,13.73
2018-09-11T05:21:14.409Z,15.90
2018-09-11T05:23:42.525Z,11.97
2018-09-11T05:26:10.948Z,11.67
2018-09-11T05:28:39.392Z,13.93
2018-09-11T05:31:07.491Z,13.33
2018-09-11T05:33:35.928Z,13.97
2018-09-11T05:36:04.024Z,13.07
2018-09-11T05:38:32.477Z,11.00
2018-09-11T05:41:01.025Z,11.47
2018-09-11T05:43:29.137Z,10.23
2018-09-11T05:45:57.558Z,14.83
2018-09-11T05:48:26.193Z,10.50
2018-09-11T05:50:54.617Z,12.87
2018-09-11T05:53:23.082Z,11.87
2018-09-11T05:55:51.505Z,10.80
2018-09-11T05:58:20.433Z,11.90
2018-09-11T06:00:49.009Z,10.23
2018-09-11T06:03:17.441Z,12.20
2018-09-11T06:05:45.940Z,10.47
2018-09-11T06:08:14.509Z,9.07
2018-09-11T06:10:42.993Z,14.67
2018-09-11T06:13:11.641Z,10.77
2018-09-11T06:15:39.940Z,10.50
2018-09-11T06:18:08.565Z,9.23
2018-09-11T06:20:36.992Z,11.90
2018-09-11T06:23:05.118Z,11.07
2018-09-11T06:25:33.545Z,12.50
2018-09-11T06:28:01.985Z,11.60
2018-09-11T06:30:30.468Z,10.53
2018-09-11T06:32:58.905Z,10.70
2018-09-11T06:35:27.381Z,8.77
2018-09-11T06:37:55.958Z,9.40
2018-09-11T06:40:24.642Z,7.67
2018-09-11T06:42:52.965Z,8.80
2018-09-11T06:45:21.621Z,11.17
2018-09-11T06:47:50.045Z,8.13
2018-09-11T06:50:18.485Z,8.90
2018-09-11T06:52:47.108Z,10.70
2018-09-11T06:55:15.801Z,9.33
2018-09-11T06:57:44.228Z,6.50
2018-09-11T07:00:12.902Z,9.10
2018-09-11T07:02:41.025Z,8.00
2018-09-11T07:05:09.470Z,7.67
2018-09-11T07:07:37.905Z,6.90
2018-09-11T07:10:06.710Z,8.67
2018-09-11T07:12:35.154Z,11.90
2018-09-11T07:15:03.573Z,8.53
2018-09-11T07:17:32.005Z,7.43
2018-09-11T07:20:00.617Z,12.80
2018-09-11T07:22:29.309Z,7.37
2018-09-11T07:24:57.417Z,13.03
2018-09-11T07:27:26.162Z,8.60
2018-09-11T07:29:55.028Z,7.83
2018-09-11T07:32:23.523Z,7.90
2018-09-11T07:34:52.141Z,14.47
2018-09-11T07:37:20.579Z,12.00
2018-09-11T07:39:48.673Z,7.17
2018-09-11T07:42:17.095Z,8.20
2018-09-11T07:44:45.538Z,8.70
2018-09-11T07:47:13.961Z,9.63
2018-09-11T07:49:42.655Z,8.60
2018-09-11T07:52:11.069Z,10.73
2018-09-11T07:54:39.509Z,8.97
2018-09-11T07:57:08.622Z,12.90
2018-09-11T07:59:37.060Z,10.27
2018-09-11T08:02:06.080Z,8.27
2018-09-11T08:04:34.501Z,15.33
2018-09-11T08:07:03.177Z,14.73
2018-09-11T08:09:33.548Z,10.40
2018-09-11T08:12:02.224Z,18.50
2018-09-11T08:14:30.470Z,19.50
2018-09-11T08:16:58.944Z,25.67
2018-09-11T08:19:27.609Z,11.03
2018-09-11T08:21:56.049Z,7.63
2018-09-11T08:24:24.665Z,11.60
2018-09-11T08:26:53.305Z,8.20
2018-09-11T08:29:21.848Z,9.80
2018-09-11T08:31:50.093Z,6.87
2018-09-11T08:34:18.518Z,8.37
2018-09-11T08:36:46.952Z,7.13
2018-09-11T08:39:15.382Z,7.43
2018-09-11T08:41:43.819Z,7.20
2018-09-11T08:44:11.912Z,8.17
2018-09-11T08:46:40.685Z,12.10
2018-09-11T08:49:09.257Z,8.13
2018-09-11T08:51:37.699Z,11.63
2018-09-11T08:54:05.955Z,8.63
2018-09-11T08:56:34.629Z,9.40
2018-09-11T08:59:03.090Z,8.43
2018-09-11T09:01:31.541Z,8.77
2018-09-11T09:03:59.965Z,6.20
2018-09-11T09:06:28.835Z,6.37
2018-09-11T09:08:57.273Z,5.50
2018-09-11T09:11:26.057Z,6.13
2018-09-11T09:13:54.481Z,6.80
2018-09-11T09:16:22.925Z,5.40
2018-09-11T09:18:51.013Z,5.33
2018-09-11T09:21:19.109Z,6.97
2018-09-11T09:23:47.726Z,5.07
2018-09-11T09:26:16.164Z,7.83
2018-09-11T09:28:45.488Z,8.23
2018-09-11T09:31:13.932Z,8.90
2018-09-11T09:33:42.648Z,5.80
2018-09-11T09:36:10.746Z,4.90
2018-09-11T09:38:38.837Z,11.93
2018-09-11T09:41:07.289Z,5.10
2018-09-11T09:43:35.732Z,10.80
2018-09-11T09:46:04.269Z,6.03
2018-09-11T09:48:32.720Z,8.53
2018-09-11T09:51:00.827Z,7.27
2018-09-11T09:53:29.284Z,9.23
2018-09-11T09:55:57.707Z,5.43
2018-09-11T09:58:26.054Z,7.30
2018-09-11T10:00:56.997Z,5.03
2018-09-11T10:03:25.661Z,7.53
2018-09-11T10:05:53.737Z,5.90
2018-09-11T10:08:22.193Z,4.97
2018-09-11T10:10:50.665Z,5.10
2018-09-11T10:13:19.272Z,4.53
2018-09-11T10:15:47.705Z,8.73
2018-09-11T10:18:16.137Z,4.33
2018-09-11T10:20:44.573Z,4.27
2018-09-11T10:23:13.005Z,4.97
2018-09-11T10:25:41.665Z,4.90
2018-09-11T10:28:10.107Z,6.37
2018-09-11T10:30:38.193Z,3.80
2018-09-11T10:33:07.213Z,6.43
2018-09-11T10:35:36.065Z,3.87
2018-09-11T10:38:04.738Z,5.03
2018-09-11T10:40:33.353Z,4.23
2018-09-11T10:43:01.468Z,4.30
2018-09-11T10:45:29.797Z,4.40
2018-09-11T10:47:58.454Z,3.60
2018-09-11T10:50:26.891Z,3.50
2018-09-11T10:52:55.357Z,5.30
2018-09-11T10:55:23.769Z,3.50
2018-09-11T10:57:52.215Z,3.47
2018-09-11T11:00:20.357Z,3.53
2018-09-11T11:02:48.958Z,4.90
2018-09-11T11:05:17.390Z,5.60
2018-09-11T11:07:46.109Z,4.03
2018-09-11T11:10:14.553Z,4.70
2018-09-11T11:12:43.048Z,3.10
2018-09-11T11:15:11.481Z,5.50
2018-09-11T11:17:40.122Z,3.93
2018-09-11T11:20:08.814Z,4.07
2018-09-11T11:22:37.286Z,3.40
2018-09-11T11:25:05.370Z,4.03
2018-09-11T11:27:33.473Z,4.63
2018-09-11T11:30:01.922Z,4.57
2018-09-11T11:32:30.356Z,3.50
2018-09-11T11:34:59.209Z,2.50
2018-09-11T11:37:27.810Z,5.97
2018-09-11T11:39:56.001Z,2.97
2018-09-11T11:42:24.495Z,4.30
2018-09-11T11:44:53.070Z,6.13
2018-09-11T11:47:21.522Z,4.20
2018-09-11T11:49:51.277Z,3.93
2018-09-11T11:52:19.993Z,3.00
2018-09-11T11:54:49.233Z,2.40
2018-09-11T11:57:17.600Z,4.40
2018-09-11T11:59:46.033Z,4.13
2018-09-11T12:02:14.630Z,3.87
2018-09-11T12:04:43.082Z,2.37
2018-09-11T12:07:11.513Z,2.37
2018-09-11T12:09:40.209Z,3.70
2018-09-11T12:12:08.501Z,2.57
2018-09-11T12:14:36.946Z,4.60
2018-09-11T12:17:05.836Z,2.40
2018-09-11T12:19:34.333Z,4.23
2018-09-11T12:22:02.997Z,3.20
2018-09-11T12:24:31.434Z,2.57
2018-09-11T12:27:00.061Z,2.77
2018-09-11T12:29:28.677Z,2.40
2018-09-11T12:31:57.298Z,2.67
2018-09-11T12:34:25.765Z,4.17
2018-09-11T12:36:54.420Z,3.47
2018-09-11T12:39:22.894Z,3.37
2018-09-11T12:41:51.329Z,2.60
2018-09-11T12:44:19.963Z,2.40
2018-09-11T12:46:48.580Z,2.80
2018-09-11T12:49:17.059Z,8.63
2018-09-11T12:51:46.329Z,2.50
2018-09-11T12:54:14.809Z,4.70
2018-09-11T12:56:43.508Z,2.13
2018-09-11T12:59:12.373Z,2.27
2018-09-11T13:01:40.807Z,4.17
2018-09-11T13:04:09.289Z,3.77
2018-09-11T13:06:37.972Z,2.60
2018-09-11T13:09:07.677Z,2.40
2018-09-11T13:11:36.339Z,2.30
2018-09-11T13:14:04.681Z,3.10
2018-09-11T13:16:33.106Z,4.20
2018-09-11T13:19:01.201Z,2.30
2018-09-11T13:21:29.645Z,2.90
2018-09-11T13:23:58.085Z,3.17
2018-09-11T13:26:26.793Z,3.50
2018-09-11T13:28:54.914Z,1.90
2018-09-11T13:31:23.438Z,2.93
2018-09-11T13:33:51.653Z,1.90
2018-09-11T13:36:20.356Z,2.90
2018-09-11T13:38:48.521Z,4.80
2018-09-11T13:41:16.813Z,5.30
2018-09-11T13:43:45.721Z,3.60
2018-09-11T13:46:14.223Z,2.30
2018-09-11T13:48:42.817Z,3.43
2018-09-11T13:51:10.936Z,4.60
2018-09-11T13:53:39.033Z,2.30
2018-09-11T13:56:07.633Z,2.00
2018-09-11T13:58:36.282Z,3.20
2018-09-11T14:01:04.413Z,2.57
2018-09-11T14:03:32.969Z,1.87
2018-09-11T14:06:01.715Z,3.70
2018-09-11T14:08:30.348Z,3.67
2018-09-11T14:10:59.261Z,2.20
2018-09-11T14:13:28.256Z,4.40
2018-09-11T14:15:56.632Z,2.33
2018-09-11T14:18:25.824Z,2.03
2018-09-11T14:20:55.172Z,2.43
2018-09-11T14:23:23.617Z,4.00
2018-09-11T14:25:52.061Z,2.63
2018-09-11T14:28:20.472Z,2.70
2018-09-11T14:30:48.830Z,3.40
2018-09-11T14:33:16.933Z,3.93
2018-09-11T14:35:45.357Z,2.37
2018-09-11T14:38:14.171Z,3.93
2018-09-11T14:40:42.401Z,4.97
2018-09-11T14:43:11.093Z,1.50
2018-09-11T14:45:39.537Z,3.03
2018-09-11T14:48:07.970Z,2.83
2018-09-11T14:50:36.677Z,6.10
2018-09-11T14:53:05.118Z,3.40
2018-09-11T14:55:33.442Z,3.17
2018-09-11T14:58:01.897Z,5.80
2018-09-11T15:00:30.439Z,2.20
2018-09-11T15:02:59.518Z,2.67
2018-09-11T15:05:27.936Z,3.37
2018-09-11T15:07:56.686Z,1.97
2018-09-11T15:10:25.169Z,4.73
2018-09-11T15:12:54.218Z,2.57
2018-09-11T15:15:22.877Z,2.33
2018-09-11T15:17:50.994Z,2.67
2018-09-11T15:20:19.413Z,2.33
2018-09-11T15:22:47.858Z,3.00
2018-09-11T15:25:16.523Z,2.20
2018-09-11T15:27:44.627Z,2.33
2018-09-11T15:30:13.088Z,3.00
2018-09-11T15:32:41.740Z,3.40
2018-09-11T15:35:10.210Z,3.80
2018-09-11T15:37:38.762Z,6.50
2018-09-11T15:40:07.430Z,2.90
2018-09-11T15:42:35.534Z,3.03
2018-09-11T15:45:03.647Z,4.50
2018-09-11T15:47:31.961Z,3.13
2018-09-11T15:50:00.065Z,5.80
2018-09-11T15:52:28.525Z,7.10
2018-09-11T15:54:56.998Z,2.60
2018-09-11T15:57:25.113Z,2.87
2018-09-11T15:59:53.541Z,4.20
2018-09-11T16:02:22.009Z,4.00
2018-09-11T16:04:50.441Z,2.50
2018-09-11T16:07:18.937Z,4.03
2018-09-11T16:09:47.562Z,2.57
2018-09-11T16:12:16.250Z,4.03
2018-09-11T16:14:44.344Z,5.60
2018-09-11T16:17:12.805Z,2.63
2018-09-11T16:19:41.248Z,4.17
2018-09-11T16:22:09.772Z,4.23
2018-09-11T16:24:38.405Z,5.80
2018-09-11T16:27:06.646Z,2.60
2018-09-11T16:29:34.797Z,4.60
2018-09-11T16:32:03.942Z,2.77
2018-09-11T16:34:32.613Z,2.93
2018-09-11T16:37:01.142Z,8.07
2018-09-11T16:39:29.562Z,4.33
2018-09-11T16:41:57.998Z,3.70
2018-09-11T16:44:26.438Z,4.00
2018-09-11T16:46:54.849Z,2.67
2018-09-11T16:49:23.369Z,3.17
2018-09-11T16:51:51.836Z,5.27
2018-09-11T16:54:20.453Z,3.90
2018-09-11T16:56:48.933Z,2.90
2018-09-11T16:59:17.361Z,5.60
2018-09-11T17:01:46.032Z,3.37
2018-09-11T17:04:15.201Z,3.30
2018-09-11T17:06:45.244Z,3.93
2018-09-11T17:09:13.739Z,13.83
2018-09-11T17:11:42.181Z,5.40
2018-09-11T17:14:10.302Z,3.80
2018-09-11T17:16:38.728Z,4.30
2018-09-11T17:19:06.879Z,7.50
2018-09-11T17:21:34.973Z,3.50
2018-09-11T17:24:03.584Z,3.70
2018-09-11T17:26:31.702Z,3.57
2018-09-11T17:29:00.010Z,2.73
2018-09-11T17:31:28.474Z,3.37
2018-09-11T17:33:57.149Z,6.00
2018-09-11T17:36:25.676Z,2.87
2018-09-11T17:39:02.565Z,3.70
2018-09-11T17:41:31.029Z,3.80
2018-09-11T17:43:59.149Z,4.80
2018-09-11T17:46:27.585Z,2.93
2018-09-11T17:48:56.534Z,3.03
2018-09-11T17:51:24.865Z,3.27
2018-09-11T17:53:53.507Z,2.90
2018-09-11T17:56:21.840Z,3.57
2018-09-11T17:58:57.627Z,2.90
2018-09-11T18:01:26.549Z,3.40
2018-09-11T18:03:54.985Z,3.80
2018-09-11T18:06:23.409Z,3.10
2018-09-11T18:08:52.114Z,3.40
2018-09-11T18:11:20.558Z,5.70
2018-09-11T18:13:49.077Z,3.03
2018-09-11T18:16:17.516Z,4.03
2018-09-11T18:18:45.998Z,4.30
2018-09-11T18:21:14.662Z,3.57
2018-09-11T18:23:43.108Z,3.67
2018-09-11T18:26:11.603Z,3.47
2018-09-11T18:28:40.209Z,6.77
2018-09-11T18:31:08.323Z,7.73
2018-09-11T18:33:37.035Z,2.90
2018-09-11T18:36:05.710Z,5.10
2018-09-11T18:38:33.801Z,6.40
2018-09-11T18:41:02.247Z,4.80
2018-09-11T18:43:30.333Z,3.20
2018-09-11T18:45:59.126Z,5.03
2018-09-11T18:48:27.560Z,4.40
2018-09-11T18:50:56.009Z,5.57
2018-09-11T18:53:24.437Z,4.50
2018-09-11T18:55:52.878Z,3.17
2018-09-11T18:58:21.310Z,3.20
2018-09-11T19:00:49.997Z,6.60
2018-09-11T19:03:19.148Z,5.73
2018-09-11T19:05:48.799Z,7.27
2018-09-11T19:08:17.342Z,3.57
2018-09-11T19:10:45.821Z,3.50
2018-09-11T19:13:14.244Z,3.10
2018-09-11T19:15:43.032Z,5.10
2018-09-11T19:18:11.130Z,6.83
2018-09-11T19:20:39.564Z,3.27
2018-09-11T19:23:08.052Z,3.67
2018-09-11T19:25:36.497Z,7.40
2018-09-11T19:28:05.171Z,5.13
2018-09-11T19:30:33.667Z,3.77
2018-09-11T19:33:02.651Z,3.50
2018-09-11T19:35:31.093Z,4.40
2018-09-11T19:37:59.517Z,4.60
2018-09-11T19:40:27.989Z,5.73
2018-09-11T19:42:57.583Z,3.20
2018-09-11T19:45:26.684Z,5.70
2018-09-11T19:47:55.258Z,7.03
2018-09-11T19:50:23.772Z,6.27
2018-09-11T19:52:52.141Z,4.10
2018-09-11T19:55:20.725Z,5.80
2018-09-11T19:57:49.389Z,4.70
2018-09-11T20:00:17.490Z,3.73
2018-09-11T20:02:46.101Z,7.97
2018-09-11T20:05:14.529Z,4.57
2018-09-11T20:07:42.957Z,3.87
2018-09-11T20:10:12.066Z,3.77
2018-09-11T20:12:40.510Z,3.60
2018-09-11T20:15:08.869Z,3.70
2018-09-11T20:17:37.301Z,3.63
2018-09-11T20:20:05.811Z,3.73
2018-09-11T20:22:34.239Z,3.10
2018-09-11T20:25:02.687Z,5.37
2018-09-11T20:27:31.321Z,3.37
2018-09-11T20:29:59.657Z,3.47
2018-09-11T20:32:28.107Z,3.23
2018-09-11T20:34:56.774Z,7.90
2018-09-11T20:37:25.327Z,4.13
2018-09-11T20:39:53.901Z,6.80
2018-09-11T20:42:22.358Z,4.07
2018-09-11T20:44:50.718Z,3.20
2018-09-11T20:47:19.008Z,4.00
2018-09-11T20:49:47.435Z,4.60
2018-09-11T20:52:15.540Z,4.40
2018-09-11T20:54:44.199Z,5.87
2018-09-11T20:57:12.790Z,4.63
2018-09-11T20:59:41.522Z,5.60
2018-09-11T21:02:09.981Z,5.33
2018-09-11T21:04:38.404Z,5.23
2018-09-11T21:07:06.693Z,6.27
2018-09-11T21:09:34.817Z,6.43
2018-09-11T21:12:03.288Z,5.83
2018-09-11T21:14:31.710Z,6.57
2018-09-11T21:17:00.176Z,4.60
2018-09-11T21:19:28.635Z,4.50
2018-09-11T21:21:57.102Z,5.70
2018-09-11T21:24:25.528Z,5.17
2018-09-11T21:26:54.186Z,10.33
2018-09-11T21:29:22.273Z,4.03
2018-09-11T21:31:50.729Z,5.13
2018-09-11T21:34:19.154Z,6.20
2018-09-11T21:36:47.493Z,3.90
2018-09-11T21:39:16.161Z,8.53
2018-09-11T21:41:44.605Z,4.90
2018-09-11T21:44:12.721Z,4.70
2018-09-11T21:46:41.199Z,6.70
2018-09-11T21:49:09.622Z,6.63
2018-09-11T21:51:38.070Z,5.23
2018-09-11T21:54:06.493Z,5.53
2018-09-11T21:56:34.829Z,6.50
2018-09-11T21:59:03.073Z,5.60
2018-09-11T22:01:36.925Z,6.03
2018-09-11T22:04:05.022Z,5.10
2018-09-11T22:06:33.453Z,8.07
2018-09-11T22:09:02.245Z,5.57
2018-09-11T22:11:30.894Z,5.03
2018-09-11T22:13:59.225Z,7.80
2018-09-11T22:16:27.325Z,10.67
2018-09-11T22:18:59.464Z,5.90
2018-09-11T22:21:27.871Z,4.97
2018-09-11T22:23:56.873Z,7.90
2018-09-11T22:26:25.477Z,6.10
2018-09-11T22:28:53.916Z,5.00
2018-09-11T22:31:22.344Z,5.70
2018-09-11T22:33:50.782Z,6.60
2018-09-11T22:36:19.201Z,5.30
2018-09-11T22:38:47.300Z,7.93
2018-09-11T22:41:15.926Z,6.57
2018-09-11T22:43:44.401Z,4.87
2018-09-11T22:46:12.829Z,4.73
2018-09-11T22:48:41.274Z,4.50
2018-09-11T22:51:09.689Z,5.73
2018-09-11T22:53:38.689Z,6.00
2018-09-11T22:56:06.901Z,4.67
2018-09-11T22:58:35.613Z,5.60
2018-09-11T23:01:04.274Z,6.87
2018-09-11T23:03:32.705Z,5.23
2018-09-11T23:06:01.315Z,6.47
2018-09-11T23:08:29.665Z,5.67
2018-09-11T23:10:58.061Z,5.27
2018-09-11T23:13:26.165Z,5.57
2018-09-11T23:15:54.623Z,5.10
2018-09-11T23:18:23.320Z,8.00
2018-09-11T23:20:51.584Z,5.17
2018-09-11T23:23:20.023Z,5.60
2018-09-11T23:25:48.689Z,6.90
2018-09-11T23:28:17.141Z,9.27
2018-09-11T23:30:45.557Z,6.13
2018-09-11T23:33:13.984Z,5.00
2018-09-11T23:35:42.409Z,4.90
2018-09-11T23:38:11.241Z,5.70
2018-09-11T23:40:39.669Z,7.40
2018-09-11T23:43:08.129Z,5.70
2018-09-11T23:45:36.471Z,10.80
2018-09-11T23:48:04.832Z,6.50
2018-09-11T23:50:33.276Z,5.70
2018-09-11T23:53:01.937Z,6.03
2018-09-11T23:55:30.049Z,6.63
2018-09-11T23:57:58.489Z,10.07
